sensor_id;sensor_type;location;lat;lon;timestamp;temperature;humidity
3690;DHT22;1861;50.240;8.596;2022-10-01T00:00:09;12.00;98.10
3690;DHT22;1861;50.240;8.596;2022-10-01T00:02:46;12.10;98.10
3690;DHT22;1861;50.240;8.596;2022-10-01T00:05:17;12.10;98.20
3690;DHT22;1861;50.240;8.596;2022-10-01T00:07:52;12.10;98.20
3690;DHT22;1861;50.240;8.596;2022-10-01T00:10:21;12.00;98.20
3690;DHT22;1861;50.240;8.596;2022-10-01T00:12:52;12.00;98.30
3690;DHT22;1861;50.240;8.596;2022-10-01T00:15:21;12.10;98.20
3690;DHT22;1861;50.240;8.596;2022-10-01T00:17:52;11.90;98.20
3690;DHT22;1861;50.240;8.596;2022-10-01T00:20:30;12.00;98.30
3690;DHT22;1861;50.240;8.596;2022-10-01T00:23:06;12.10;98.40
3690;DHT22;1861;50.240;8.596;2022-10-01T00:25:40;12.10;98.30
3690;DHT22;1861;50.240;8.596;2022-10-01T00:28:09;12.10;98.50
3690;DHT22;1861;50.240;8.596;2022-10-01T00:30:45;12.00;98.50
3690;DHT22;1861;50.240;8.596;2022-10-01T00:33:18;12.00;98.60
3690;DHT22;1861;50.240;8.596;2022-10-01T00:35:54;12.10;98.60
3690;DHT22;1861;50.240;8.596;2022-10-01T00:38:32;12.10;98.70
3690;DHT22;1861;50.240;8.596;2022-10-01T00:41:02;12.20;98.70
3690;DHT22;1861;50.240;8.596;2022-10-01T00:43:43;12.10;98.80
3690;DHT22;1861;50.240;8.596;2022-10-01T00:46:19;12.00;98.80
3690;DHT22;1861;50.240;8.596;2022-10-01T00:49:00;12.30;99.00
3690;DHT22;1861;50.240;8.596;2022-10-01T00:51:41;12.10;98.90
3690;DHT22;1861;50.240;8.596;2022-10-01T00:54:20;12.20;99.00
3690;DHT22;1861;50.240;8.596;2022-10-01T00:56:53;12.10;99.10
3690;DHT22;1861;50.240;8.596;2022-10-01T00:59:31;12.20;99.10
3690;DHT22;1861;50.240;8.596;2022-10-01T01:02:03;12.10;99.00
3690;DHT22;1861;50.240;8.596;2022-10-01T01:04:36;12.00;99.20
3690;DHT22;1861;50.240;8.596;2022-10-01T01:07:11;12.10;99.20
3690;DHT22;1861;50.240;8.596;2022-10-01T01:09:50;12.10;99.20
3690;DHT22;1861;50.240;8.596;2022-10-01T01:12:50;12.10;99.20
3690;DHT22;1861;50.240;8.596;2022-10-01T01:15:31;12.20;99.20
3690;DHT22;1861;50.240;8.596;2022-10-01T01:18:09;12.10;99.10
3690;DHT22;1861;50.240;8.596;2022-10-01T01:21:09;12.20;99.20
3690;DHT22;1861;50.240;8.596;2022-10-01T01:27:17;12.10;99.30
3690;DHT22;1861;50.240;8.596;2022-10-01T01:30:00;12.10;99.30
3690;DHT22;1861;50.240;8.596;2022-10-01T01:32:38;12.10;99.30
3690;DHT22;1861;50.240;8.596;2022-10-01T01:35:23;12.10;99.40
3690;DHT22;1861;50.240;8.596;2022-10-01T01:38:02;12.10;99.50
3690;DHT22;1861;50.240;8.596;2022-10-01T01:40:39;12.10;99.60
3690;DHT22;1861;50.240;8.596;2022-10-01T01:43:13;12.10;99.50
3690;DHT22;1861;50.240;8.596;2022-10-01T01:45:51;12.10;99.60
3690;DHT22;1861;50.240;8.596;2022-10-01T01:48:26;12.20;99.70
3690;DHT22;1861;50.240;8.596;2022-10-01T01:51:06;12.20;99.70
3690;DHT22;1861;50.240;8.596;2022-10-01T01:53:37;12.20;99.80
3690;DHT22;1861;50.240;8.596;2022-10-01T01:56:10;12.20;99.80
3690;DHT22;1861;50.240;8.596;2022-10-01T01:58:40;12.10;99.80
3690;DHT22;1861;50.240;8.596;2022-10-01T02:01:41;12.30;99.80
3690;DHT22;1861;50.240;8.596;2022-10-01T02:04:17;12.20;99.90
3690;DHT22;1861;50.240;8.596;2022-10-01T02:07:11;12.30;99.90
3690;DHT22;1861;50.240;8.596;2022-10-01T02:10:13;12.30;99.90
3690;DHT22;1861;50.240;8.596;2022-10-01T02:12:56;12.30;99.90
3690;DHT22;1861;50.240;8.596;2022-10-01T02:15:40;12.30;99.90
3690;DHT22;1861;50.240;8.596;2022-10-01T02:18:22;12.40;99.90
3690;DHT22;1861;50.240;8.596;2022-10-01T02:21:08;12.60;99.90
3690;DHT22;1861;50.240;8.596;2022-10-01T02:23:43;12.50;99.90
3690;DHT22;1861;50.240;8.596;2022-10-01T02:26:19;12.60;99.90
3690;DHT22;1861;50.240;8.596;2022-10-01T02:28:53;12.60;99.90
3690;DHT22;1861;50.240;8.596;2022-10-01T02:31:26;12.60;99.90
3690;DHT22;1861;50.240;8.596;2022-10-01T02:34:06;12.60;99.90
3690;DHT22;1861;50.240;8.596;2022-10-01T02:36:46;12.80;99.90
3690;DHT22;1861;50.240;8.596;2022-10-01T02:39:19;12.70;99.90
3690;DHT22;1861;50.240;8.596;2022-10-01T02:41:58;12.70;99.90
3690;DHT22;1861;50.240;8.596;2022-10-01T02:44:36;12.90;99.90
3690;DHT22;1861;50.240;8.596;2022-10-01T02:47:14;12.70;99.90
3690;DHT22;1861;50.240;8.596;2022-10-01T02:49:56;12.70;99.90
3690;DHT22;1861;50.240;8.596;2022-10-01T02:52:29;12.80;99.90
3690;DHT22;1861;50.240;8.596;2022-10-01T02:55:06;12.90;99.90
3690;DHT22;1861;50.240;8.596;2022-10-01T02:57:41;12.90;99.90
3690;DHT22;1861;50.240;8.596;2022-10-01T03:00:12;13.00;99.90
3690;DHT22;1861;50.240;8.596;2022-10-01T03:02:48;13.00;99.90
3690;DHT22;1861;50.240;8.596;2022-10-01T03:05:26;12.90;99.90
3690;DHT22;1861;50.240;8.596;2022-10-01T03:07:58;12.90;99.90
3690;DHT22;1861;50.240;8.596;2022-10-01T03:10:31;12.90;99.90
3690;DHT22;1861;50.240;8.596;2022-10-01T03:13:01;12.80;99.90
3690;DHT22;1861;50.240;8.596;2022-10-01T03:15:34;13.10;99.90
3690;DHT22;1861;50.240;8.596;2022-10-01T03:18:11;13.00;99.90
3690;DHT22;1861;50.240;8.596;2022-10-01T03:20:47;13.00;99.90
3690;DHT22;1861;50.240;8.596;2022-10-01T03:23:19;12.90;99.90
3690;DHT22;1861;50.240;8.596;2022-10-01T03:25:47;12.90;99.90
3690;DHT22;1861;50.240;8.596;2022-10-01T03:28:17;12.90;99.90
3690;DHT22;1861;50.240;8.596;2022-10-01T03:31:05;12.90;99.90
3690;DHT22;1861;50.240;8.596;2022-10-01T03:33:44;12.90;99.90
3690;DHT22;1861;50.240;8.596;2022-10-01T03:36:15;13.00;99.90
3690;DHT22;1861;50.240;8.596;2022-10-01T03:38:44;13.00;99.90
3690;DHT22;1861;50.240;8.596;2022-10-01T03:41:23;13.00;99.90
3690;DHT22;1861;50.240;8.596;2022-10-01T03:43:54;13.00;99.90
3690;DHT22;1861;50.240;8.596;2022-10-01T03:46:31;12.90;99.90
3690;DHT22;1861;50.240;8.596;2022-10-01T03:49:04;12.90;99.90
3690;DHT22;1861;50.240;8.596;2022-10-01T03:51:38;12.90;99.90
3690;DHT22;1861;50.240;8.596;2022-10-01T03:54:08;12.90;99.90
3690;DHT22;1861;50.240;8.596;2022-10-01T03:56:41;13.00;99.90
3690;DHT22;1861;50.240;8.596;2022-10-01T03:59:17;12.90;99.90
3690;DHT22;1861;50.240;8.596;2022-10-01T04:01:46;12.90;99.90
3690;DHT22;1861;50.240;8.596;2022-10-01T04:04:16;12.90;99.90
3690;DHT22;1861;50.240;8.596;2022-10-01T04:06:49;12.90;99.90
3690;DHT22;1861;50.240;8.596;2022-10-01T04:09:19;12.90;99.90
3690;DHT22;1861;50.240;8.596;2022-10-01T04:11:56;12.80;99.90
3690;DHT22;1861;50.240;8.596;2022-10-01T04:14:27;12.90;99.90
3690;DHT22;1861;50.240;8.596;2022-10-01T04:16:57;12.90;99.90
3690;DHT22;1861;50.240;8.596;2022-10-01T04:19:28;12.90;99.90
3690;DHT22;1861;50.240;8.596;2022-10-01T04:22:02;12.90;99.90
3690;DHT22;1861;50.240;8.596;2022-10-01T04:24:39;12.90;99.90
3690;DHT22;1861;50.240;8.596;2022-10-01T04:27:13;12.80;99.90
3690;DHT22;1861;50.240;8.596;2022-10-01T04:29:44;12.90;99.90
3690;DHT22;1861;50.240;8.596;2022-10-01T04:32:16;13.00;99.90
3690;DHT22;1861;50.240;8.596;2022-10-01T04:34:48;13.00;99.90
3690;DHT22;1861;50.240;8.596;2022-10-01T04:37:29;12.70;99.90
3690;DHT22;1861;50.240;8.596;2022-10-01T04:40:03;12.80;99.90
3690;DHT22;1861;50.240;8.596;2022-10-01T04:42:40;12.90;99.90
3690;DHT22;1861;50.240;8.596;2022-10-01T04:45:18;12.90;99.90
3690;DHT22;1861;50.240;8.596;2022-10-01T04:47:49;12.90;99.90
3690;DHT22;1861;50.240;8.596;2022-10-01T04:50:20;12.90;99.90
3690;DHT22;1861;50.240;8.596;2022-10-01T04:53:05;12.90;99.90
3690;DHT22;1861;50.240;8.596;2022-10-01T04:55:38;13.00;99.90
3690;DHT22;1861;50.240;8.596;2022-10-01T04:58:12;12.90;99.90
3690;DHT22;1861;50.240;8.596;2022-10-01T05:00:42;12.90;99.90
3690;DHT22;1861;50.240;8.596;2022-10-01T05:03:10;12.90;99.90
3690;DHT22;1861;50.240;8.596;2022-10-01T05:05:55;12.90;99.90
3690;DHT22;1861;50.240;8.596;2022-10-01T05:08:31;12.90;99.90
3690;DHT22;1861;50.240;8.596;2022-10-01T05:11:00;12.90;99.90
3690;DHT22;1861;50.240;8.596;2022-10-01T05:13:37;13.00;99.90
3690;DHT22;1861;50.240;8.596;2022-10-01T05:16:13;13.00;99.90
3690;DHT22;1861;50.240;8.596;2022-10-01T05:18:46;12.90;99.90
3690;DHT22;1861;50.240;8.596;2022-10-01T05:21:20;13.00;99.90
3690;DHT22;1861;50.240;8.596;2022-10-01T05:23:53;13.00;99.90
3690;DHT22;1861;50.240;8.596;2022-10-01T05:26:26;13.00;99.90
3690;DHT22;1861;50.240;8.596;2022-10-01T05:28:56;13.00;99.90
3690;DHT22;1861;50.240;8.596;2022-10-01T05:31:28;12.90;99.90
3690;DHT22;1861;50.240;8.596;2022-10-01T05:33:57;13.00;99.90
3690;DHT22;1861;50.240;8.596;2022-10-01T05:36:28;13.00;99.90
3690;DHT22;1861;50.240;8.596;2022-10-01T05:39:07;13.00;99.90
3690;DHT22;1861;50.240;8.596;2022-10-01T05:41:38;12.90;99.90
3690;DHT22;1861;50.240;8.596;2022-10-01T05:44:09;13.00;99.90
3690;DHT22;1861;50.240;8.596;2022-10-01T05:46:41;13.10;99.90
3690;DHT22;1861;50.240;8.596;2022-10-01T05:49:17;13.00;99.90
3690;DHT22;1861;50.240;8.596;2022-10-01T05:51:54;13.00;99.90
3690;DHT22;1861;50.240;8.596;2022-10-01T05:54:26;13.00;99.90
3690;DHT22;1861;50.240;8.596;2022-10-01T05:56:56;12.90;99.90
3690;DHT22;1861;50.240;8.596;2022-10-01T05:59:27;13.00;99.90
3690;DHT22;1861;50.240;8.596;2022-10-01T06:01:58;13.00;99.90
3690;DHT22;1861;50.240;8.596;2022-10-01T06:04:33;12.90;99.90
3690;DHT22;1861;50.240;8.596;2022-10-01T06:07:08;13.00;99.90
3690;DHT22;1861;50.240;8.596;2022-10-01T06:09:42;12.90;99.90
3690;DHT22;1861;50.240;8.596;2022-10-01T06:12:20;13.00;99.90
3690;DHT22;1861;50.240;8.596;2022-10-01T06:14:57;13.10;99.90
3690;DHT22;1861;50.240;8.596;2022-10-01T06:17:26;12.90;99.90
3690;DHT22;1861;50.240;8.596;2022-10-01T06:19:57;13.10;99.90
3690;DHT22;1861;50.240;8.596;2022-10-01T06:22:29;13.10;99.90
3690;DHT22;1861;50.240;8.596;2022-10-01T06:25:02;13.00;99.90
3690;DHT22;1861;50.240;8.596;2022-10-01T06:27:36;13.10;99.90
3690;DHT22;1861;50.240;8.596;2022-10-01T06:30:10;13.10;99.90
3690;DHT22;1861;50.240;8.596;2022-10-01T06:32:45;12.90;99.90
3690;DHT22;1861;50.240;8.596;2022-10-01T06:35:21;12.90;99.90
3690;DHT22;1861;50.240;8.596;2022-10-01T06:37:58;12.90;99.90
3690;DHT22;1861;50.240;8.596;2022-10-01T06:40:31;13.00;99.90
3690;DHT22;1861;50.240;8.596;2022-10-01T06:43:04;13.00;99.90
3690;DHT22;1861;50.240;8.596;2022-10-01T06:45:39;13.00;99.90
3690;DHT22;1861;50.240;8.596;2022-10-01T06:48:12;13.20;99.90
3690;DHT22;1861;50.240;8.596;2022-10-01T06:50:46;13.00;99.90
3690;DHT22;1861;50.240;8.596;2022-10-01T06:53:18;13.00;99.90
3690;DHT22;1861;50.240;8.596;2022-10-01T06:55:49;12.90;99.90
3690;DHT22;1861;50.240;8.596;2022-10-01T06:58:24;13.00;99.90
3690;DHT22;1861;50.240;8.596;2022-10-01T07:01:08;13.00;99.90
3690;DHT22;1861;50.240;8.596;2022-10-01T07:03:49;13.10;99.90
3690;DHT22;1861;50.240;8.596;2022-10-01T07:06:21;13.00;99.90
3690;DHT22;1861;50.240;8.596;2022-10-01T07:08:56;13.10;99.90
3690;DHT22;1861;50.240;8.596;2022-10-01T07:11:34;13.00;99.90
3690;DHT22;1861;50.240;8.596;2022-10-01T07:14:08;13.10;99.90
3690;DHT22;1861;50.240;8.596;2022-10-01T07:16:41;13.10;99.90
3690;DHT22;1861;50.240;8.596;2022-10-01T07:19:16;13.10;99.90
3690;DHT22;1861;50.240;8.596;2022-10-01T07:21:50;13.10;99.90
3690;DHT22;1861;50.240;8.596;2022-10-01T07:24:20;13.00;99.90
3690;DHT22;1861;50.240;8.596;2022-10-01T07:26:52;13.00;99.90
3690;DHT22;1861;50.240;8.596;2022-10-01T07:29:23;13.10;99.90
3690;DHT22;1861;50.240;8.596;2022-10-01T07:31:57;13.20;99.90
3690;DHT22;1861;50.240;8.596;2022-10-01T07:34:35;13.10;99.90
3690;DHT22;1861;50.240;8.596;2022-10-01T07:37:05;13.10;99.90
3690;DHT22;1861;50.240;8.596;2022-10-01T07:39:49;13.20;99.90
3690;DHT22;1861;50.240;8.596;2022-10-01T07:42:23;13.30;99.90
3690;DHT22;1861;50.240;8.596;2022-10-01T07:44:53;13.20;99.90
3690;DHT22;1861;50.240;8.596;2022-10-01T07:47:27;13.20;99.90
3690;DHT22;1861;50.240;8.596;2022-10-01T07:49:58;13.20;99.90
3690;DHT22;1861;50.240;8.596;2022-10-01T07:52:27;13.30;99.90
3690;DHT22;1861;50.240;8.596;2022-10-01T07:55:00;13.30;99.90
3690;DHT22;1861;50.240;8.596;2022-10-01T07:57:42;13.30;99.90
3690;DHT22;1861;50.240;8.596;2022-10-01T08:00:14;13.20;99.90
3690;DHT22;1861;50.240;8.596;2022-10-01T08:02:46;13.10;99.90
3690;DHT22;1861;50.240;8.596;2022-10-01T08:05:20;13.10;99.90
3690;DHT22;1861;50.240;8.596;2022-10-01T08:07:59;13.00;99.90
3690;DHT22;1861;50.240;8.596;2022-10-01T08:10:30;13.10;99.90
3690;DHT22;1861;50.240;8.596;2022-10-01T08:13:13;13.10;99.90
3690;DHT22;1861;50.240;8.596;2022-10-01T08:15:46;13.10;99.90
3690;DHT22;1861;50.240;8.596;2022-10-01T08:18:26;13.10;99.90
3690;DHT22;1861;50.240;8.596;2022-10-01T08:20:57;13.10;99.90
3690;DHT22;1861;50.240;8.596;2022-10-01T08:23:30;13.10;99.90
3690;DHT22;1861;50.240;8.596;2022-10-01T08:26:13;13.20;99.90
3690;DHT22;1861;50.240;8.596;2022-10-01T08:28:49;13.20;99.90
3690;DHT22;1861;50.240;8.596;2022-10-01T08:31:23;13.20;99.90
3690;DHT22;1861;50.240;8.596;2022-10-01T08:34:01;13.30;99.90
3690;DHT22;1861;50.240;8.596;2022-10-01T08:36:32;13.30;99.90
3690;DHT22;1861;50.240;8.596;2022-10-01T08:39:10;13.30;99.90
3690;DHT22;1861;50.240;8.596;2022-10-01T08:41:51;13.30;99.90
3690;DHT22;1861;50.240;8.596;2022-10-01T08:44:33;13.20;99.90
3690;DHT22;1861;50.240;8.596;2022-10-01T08:47:11;13.30;99.90
3690;DHT22;1861;50.240;8.596;2022-10-01T08:49:45;13.40;99.90
3690;DHT22;1861;50.240;8.596;2022-10-01T08:52:23;13.20;99.90
3690;DHT22;1861;50.240;8.596;2022-10-01T08:55:08;13.20;99.90
3690;DHT22;1861;50.240;8.596;2022-10-01T08:57:42;13.30;99.90
3690;DHT22;1861;50.240;8.596;2022-10-01T09:00:23;13.30;99.90
3690;DHT22;1861;50.240;8.596;2022-10-01T09:02:58;13.30;99.90
3690;DHT22;1861;50.240;8.596;2022-10-01T09:05:35;13.30;99.90
3690;DHT22;1861;50.240;8.596;2022-10-01T09:08:23;13.30;99.90
3690;DHT22;1861;50.240;8.596;2022-10-01T09:11:21;13.30;99.90
3690;DHT22;1861;50.240;8.596;2022-10-01T09:14:20;13.40;99.90
3690;DHT22;1861;50.240;8.596;2022-10-01T09:17:08;13.30;99.90
3690;DHT22;1861;50.240;8.596;2022-10-01T09:19:58;13.20;99.90
3690;DHT22;1861;50.240;8.596;2022-10-01T09:22:38;13.30;99.90
3690;DHT22;1861;50.240;8.596;2022-10-01T09:25:16;13.30;99.90
3690;DHT22;1861;50.240;8.596;2022-10-01T09:28:06;13.30;99.90
3690;DHT22;1861;50.240;8.596;2022-10-01T09:30:44;13.40;99.90
3690;DHT22;1861;50.240;8.596;2022-10-01T09:33:23;13.40;99.90
3690;DHT22;1861;50.240;8.596;2022-10-01T09:36:01;13.40;99.90
3690;DHT22;1861;50.240;8.596;2022-10-01T09:38:39;13.60;99.90
3690;DHT22;1861;50.240;8.596;2022-10-01T09:41:10;13.60;99.90
3690;DHT22;1861;50.240;8.596;2022-10-01T09:43:45;13.60;99.90
3690;DHT22;1861;50.240;8.596;2022-10-01T09:46:25;13.60;99.90
3690;DHT22;1861;50.240;8.596;2022-10-01T09:49:07;13.50;99.90
3690;DHT22;1861;50.240;8.596;2022-10-01T09:51:48;13.60;99.90
3690;DHT22;1861;50.240;8.596;2022-10-01T09:54:27;13.60;99.90
3690;DHT22;1861;50.240;8.596;2022-10-01T09:57:08;13.50;99.90
3690;DHT22;1861;50.240;8.596;2022-10-01T09:59:49;13.40;99.90
3690;DHT22;1861;50.240;8.596;2022-10-01T10:02:31;13.40;99.90
3690;DHT22;1861;50.240;8.596;2022-10-01T10:05:08;13.50;99.90
3690;DHT22;1861;50.240;8.596;2022-10-01T10:07:43;13.60;99.90
3690;DHT22;1861;50.240;8.596;2022-10-01T10:10:19;13.60;99.90
3690;DHT22;1861;50.240;8.596;2022-10-01T10:12:58;13.60;99.90
3690;DHT22;1861;50.240;8.596;2022-10-01T10:15:32;13.60;99.90
3690;DHT22;1861;50.240;8.596;2022-10-01T10:18:07;13.60;99.90
3690;DHT22;1861;50.240;8.596;2022-10-01T10:20:42;13.50;99.90
3690;DHT22;1861;50.240;8.596;2022-10-01T10:23:18;13.60;99.90
3690;DHT22;1861;50.240;8.596;2022-10-01T10:25:56;13.60;99.90
3690;DHT22;1861;50.240;8.596;2022-10-01T10:28:37;13.60;99.90
3690;DHT22;1861;50.240;8.596;2022-10-01T10:31:15;13.60;99.90
3690;DHT22;1861;50.240;8.596;2022-10-01T10:33:51;13.60;99.90
3690;DHT22;1861;50.240;8.596;2022-10-01T10:36:26;13.60;99.90
3690;DHT22;1861;50.240;8.596;2022-10-01T10:38:59;13.60;99.90
3690;DHT22;1861;50.240;8.596;2022-10-01T10:41:31;13.60;99.90
3690;DHT22;1861;50.240;8.596;2022-10-01T10:44:14;13.60;99.90
3690;DHT22;1861;50.240;8.596;2022-10-01T10:46:52;13.60;99.90
3690;DHT22;1861;50.240;8.596;2022-10-01T10:49:28;13.60;99.90
3690;DHT22;1861;50.240;8.596;2022-10-01T10:52:01;13.60;99.90
3690;DHT22;1861;50.240;8.596;2022-10-01T10:54:32;13.60;99.90
3690;DHT22;1861;50.240;8.596;2022-10-01T10:57:18;13.60;99.90
3690;DHT22;1861;50.240;8.596;2022-10-01T10:59:56;13.70;99.90
3690;DHT22;1861;50.240;8.596;2022-10-01T11:02:28;13.80;99.90
3690;DHT22;1861;50.240;8.596;2022-10-01T11:05:01;13.70;99.90
3690;DHT22;1861;50.240;8.596;2022-10-01T11:07:42;13.70;99.90
3690;DHT22;1861;50.240;8.596;2022-10-01T11:10:31;13.70;99.90
3690;DHT22;1861;50.240;8.596;2022-10-01T11:17:07;13.70;99.90
3690;DHT22;1861;50.240;8.596;2022-10-01T11:19:49;13.70;99.90
3690;DHT22;1861;50.240;8.596;2022-10-01T11:22:51;13.60;99.90
3690;DHT22;1861;50.240;8.596;2022-10-01T11:25:32;13.80;99.90
3690;DHT22;1861;50.240;8.596;2022-10-01T11:28:17;13.80;99.90
3690;DHT22;1861;50.240;8.596;2022-10-01T11:30:57;14.50;99.90
3690;DHT22;1861;50.240;8.596;2022-10-01T11:33:34;14.20;99.90
3690;DHT22;1861;50.240;8.596;2022-10-01T11:36:19;14.30;99.90
3690;DHT22;1861;50.240;8.596;2022-10-01T11:39:12;13.80;99.90
3690;DHT22;1861;50.240;8.596;2022-10-01T11:41:51;13.90;99.90
3690;DHT22;1861;50.240;8.596;2022-10-01T11:44:27;13.90;99.90
3690;DHT22;1861;50.240;8.596;2022-10-01T11:47:01;13.90;99.90
3690;DHT22;1861;50.240;8.596;2022-10-01T11:49:56;14.00;99.90
3690;DHT22;1861;50.240;8.596;2022-10-01T11:52:34;14.00;99.90
3690;DHT22;1861;50.240;8.596;2022-10-01T11:55:15;13.90;99.90
3690;DHT22;1861;50.240;8.596;2022-10-01T12:01:23;14.00;99.90
3690;DHT22;1861;50.240;8.596;2022-10-01T12:04:04;14.00;99.90
3690;DHT22;1861;50.240;8.596;2022-10-01T12:06:41;14.00;99.90
3690;DHT22;1861;50.240;8.596;2022-10-01T12:09:28;14.10;99.90
3690;DHT22;1861;50.240;8.596;2022-10-01T12:12:04;14.10;99.90
3690;DHT22;1861;50.240;8.596;2022-10-01T12:14:43;14.20;99.90
3690;DHT22;1861;50.240;8.596;2022-10-01T12:17:44;14.20;99.90
3690;DHT22;1861;50.240;8.596;2022-10-01T12:20:43;14.20;99.90
3690;DHT22;1861;50.240;8.596;2022-10-01T12:23:20;14.20;99.90
3690;DHT22;1861;50.240;8.596;2022-10-01T12:25:57;14.30;99.90
3690;DHT22;1861;50.240;8.596;2022-10-01T12:28:39;14.30;99.90
3690;DHT22;1861;50.240;8.596;2022-10-01T12:31:25;14.20;99.90
3690;DHT22;1861;50.240;8.596;2022-10-01T12:34:21;14.30;99.90
3690;DHT22;1861;50.240;8.596;2022-10-01T12:37:05;14.20;99.90
3690;DHT22;1861;50.240;8.596;2022-10-01T12:39:50;14.40;99.90
3690;DHT22;1861;50.240;8.596;2022-10-01T12:43:07;14.20;99.90
3690;DHT22;1861;50.240;8.596;2022-10-01T12:45:54;14.30;99.90
3690;DHT22;1861;50.240;8.596;2022-10-01T12:48:39;14.30;99.90
3690;DHT22;1861;50.240;8.596;2022-10-01T12:51:39;14.30;99.90
3690;DHT22;1861;50.240;8.596;2022-10-01T12:54:36;14.40;99.90
3690;DHT22;1861;50.240;8.596;2022-10-01T12:57:26;14.40;99.90
3690;DHT22;1861;50.240;8.596;2022-10-01T13:00:10;14.40;99.90
3690;DHT22;1861;50.240;8.596;2022-10-01T13:06:26;14.50;99.90
3690;DHT22;1861;50.240;8.596;2022-10-01T13:09:16;14.60;99.90
3690;DHT22;1861;50.240;8.596;2022-10-01T13:12:00;14.60;99.90
3690;DHT22;1861;50.240;8.596;2022-10-01T13:14:40;14.60;99.90
3690;DHT22;1861;50.240;8.596;2022-10-01T13:17:17;14.80;99.90
3690;DHT22;1861;50.240;8.596;2022-10-01T13:20:02;14.60;99.90
3690;DHT22;1861;50.240;8.596;2022-10-01T13:22:49;14.80;99.90
3690;DHT22;1861;50.240;8.596;2022-10-01T13:25:31;14.80;99.90
3690;DHT22;1861;50.240;8.596;2022-10-01T13:28:13;14.80;99.90
3690;DHT22;1861;50.240;8.596;2022-10-01T13:31:08;14.80;99.90
3690;DHT22;1861;50.240;8.596;2022-10-01T13:33:54;14.80;99.90
3690;DHT22;1861;50.240;8.596;2022-10-01T13:36:31;14.90;99.90
3690;DHT22;1861;50.240;8.596;2022-10-01T13:39:03;14.90;99.90
3690;DHT22;1861;50.240;8.596;2022-10-01T13:41:45;15.00;99.90
3690;DHT22;1861;50.240;8.596;2022-10-01T13:44:21;15.00;99.90
3690;DHT22;1861;50.240;8.596;2022-10-01T13:47:00;15.00;99.90
3690;DHT22;1861;50.240;8.596;2022-10-01T13:49:35;14.90;99.90
3690;DHT22;1861;50.240;8.596;2022-10-01T13:52:19;15.00;99.90
3690;DHT22;1861;50.240;8.596;2022-10-01T13:54:59;15.00;99.90
3690;DHT22;1861;50.240;8.596;2022-10-01T13:57:32;15.10;99.90
3690;DHT22;1861;50.240;8.596;2022-10-01T14:00:20;15.10;99.90
3690;DHT22;1861;50.240;8.596;2022-10-01T14:03:04;15.10;99.90
3690;DHT22;1861;50.240;8.596;2022-10-01T14:05:42;15.10;99.90
3690;DHT22;1861;50.240;8.596;2022-10-01T14:08:16;15.10;99.90
3690;DHT22;1861;50.240;8.596;2022-10-01T14:10:57;15.10;99.90
3690;DHT22;1861;50.240;8.596;2022-10-01T14:14:00;15.10;99.90
3690;DHT22;1861;50.240;8.596;2022-10-01T14:16:50;15.00;99.90
3690;DHT22;1861;50.240;8.596;2022-10-01T14:19:24;15.20;99.90
3690;DHT22;1861;50.240;8.596;2022-10-01T14:22:10;15.20;99.90
3690;DHT22;1861;50.240;8.596;2022-10-01T14:28:13;15.20;99.90
3690;DHT22;1861;50.240;8.596;2022-10-01T14:30:49;15.20;99.90
3690;DHT22;1861;50.240;8.596;2022-10-01T14:33:57;15.30;99.90
3690;DHT22;1861;50.240;8.596;2022-10-01T14:36:32;15.30;99.90
3690;DHT22;1861;50.240;8.596;2022-10-01T14:39:15;15.30;99.90
3690;DHT22;1861;50.240;8.596;2022-10-01T14:41:50;15.30;99.90
3690;DHT22;1861;50.240;8.596;2022-10-01T14:44:24;15.30;99.90
3690;DHT22;1861;50.240;8.596;2022-10-01T14:46:59;15.30;99.90
3690;DHT22;1861;50.240;8.596;2022-10-01T14:49:45;15.30;99.90
3690;DHT22;1861;50.240;8.596;2022-10-01T14:52:22;15.30;99.90
3690;DHT22;1861;50.240;8.596;2022-10-01T14:54:59;15.30;99.90
3690;DHT22;1861;50.240;8.596;2022-10-01T14:57:37;15.30;99.90
3690;DHT22;1861;50.240;8.596;2022-10-01T15:00:17;15.40;99.90
3690;DHT22;1861;50.240;8.596;2022-10-01T15:02:49;15.40;99.90
3690;DHT22;1861;50.240;8.596;2022-10-01T15:05:28;15.40;99.90
3690;DHT22;1861;50.240;8.596;2022-10-01T15:08:08;15.40;99.90
3690;DHT22;1861;50.240;8.596;2022-10-01T15:10:56;15.40;99.90
3690;DHT22;1861;50.240;8.596;2022-10-01T15:13:37;15.20;99.90
3690;DHT22;1861;50.240;8.596;2022-10-01T15:16:15;15.40;99.90
3690;DHT22;1861;50.240;8.596;2022-10-01T15:18:49;15.30;99.90
3690;DHT22;1861;50.240;8.596;2022-10-01T15:21:23;15.30;99.90
3690;DHT22;1861;50.240;8.596;2022-10-01T15:23:54;15.40;99.90
3690;DHT22;1861;50.240;8.596;2022-10-01T15:26:32;15.30;99.90
3690;DHT22;1861;50.240;8.596;2022-10-01T15:29:05;15.30;99.90
3690;DHT22;1861;50.240;8.596;2022-10-01T15:31:39;15.30;99.90
3690;DHT22;1861;50.240;8.596;2022-10-01T15:34:14;15.30;99.90
3690;DHT22;1861;50.240;8.596;2022-10-01T15:36:53;15.30;99.90
3690;DHT22;1861;50.240;8.596;2022-10-01T15:39:41;15.30;99.90
3690;DHT22;1861;50.240;8.596;2022-10-01T15:42:22;15.30;99.90
3690;DHT22;1861;50.240;8.596;2022-10-01T15:45:21;15.40;99.90
3690;DHT22;1861;50.240;8.596;2022-10-01T15:47:56;15.30;99.90
3690;DHT22;1861;50.240;8.596;2022-10-01T15:50:28;15.40;99.90
3690;DHT22;1861;50.240;8.596;2022-10-01T15:53:15;15.40;99.90
3690;DHT22;1861;50.240;8.596;2022-10-01T15:55:52;15.40;99.90
3690;DHT22;1861;50.240;8.596;2022-10-01T15:58:33;15.20;99.90
3690;DHT22;1861;50.240;8.596;2022-10-01T16:01:09;15.40;99.90
3690;DHT22;1861;50.240;8.596;2022-10-01T16:03:55;15.50;99.90
3690;DHT22;1861;50.240;8.596;2022-10-01T16:06:40;15.40;99.90
3690;DHT22;1861;50.240;8.596;2022-10-01T16:09:15;15.60;99.90
3690;DHT22;1861;50.240;8.596;2022-10-01T16:12:01;15.30;99.90
3690;DHT22;1861;50.240;8.596;2022-10-01T16:14:37;15.30;99.90
3690;DHT22;1861;50.240;8.596;2022-10-01T16:17:37;15.30;99.90
3690;DHT22;1861;50.240;8.596;2022-10-01T16:20:38;15.30;99.90
3690;DHT22;1861;50.240;8.596;2022-10-01T16:23:36;15.30;99.90
3690;DHT22;1861;50.240;8.596;2022-10-01T16:26:31;15.30;99.90
3690;DHT22;1861;50.240;8.596;2022-10-01T16:29:24;15.30;99.90
3690;DHT22;1861;50.240;8.596;2022-10-01T16:31:55;15.30;99.90
3690;DHT22;1861;50.240;8.596;2022-10-01T16:34:43;15.20;99.90
3690;DHT22;1861;50.240;8.596;2022-10-01T16:37:12;15.30;99.90
3690;DHT22;1861;50.240;8.596;2022-10-01T16:39:42;15.30;99.90
3690;DHT22;1861;50.240;8.596;2022-10-01T16:42:22;15.30;99.90
3690;DHT22;1861;50.240;8.596;2022-10-01T16:44:53;15.20;99.90
3690;DHT22;1861;50.240;8.596;2022-10-01T16:47:22;15.30;99.90
3690;DHT22;1861;50.240;8.596;2022-10-01T16:49:59;15.30;99.90
3690;DHT22;1861;50.240;8.596;2022-10-01T16:52:33;15.20;99.90
3690;DHT22;1861;50.240;8.596;2022-10-01T16:55:15;15.20;99.90
3690;DHT22;1861;50.240;8.596;2022-10-01T16:57:51;15.20;99.90
3690;DHT22;1861;50.240;8.596;2022-10-01T17:00:31;15.20;99.90
3690;DHT22;1861;50.240;8.596;2022-10-01T17:03:14;15.20;99.90
3690;DHT22;1861;50.240;8.596;2022-10-01T17:05:52;15.10;99.90
3690;DHT22;1861;50.240;8.596;2022-10-01T17:08:29;15.10;99.90
3690;DHT22;1861;50.240;8.596;2022-10-01T17:10:59;15.00;99.90
3690;DHT22;1861;50.240;8.596;2022-10-01T17:13:31;15.00;99.90
3690;DHT22;1861;50.240;8.596;2022-10-01T17:16:09;15.00;99.90
3690;DHT22;1861;50.240;8.596;2022-10-01T17:18:44;15.00;99.90
3690;DHT22;1861;50.240;8.596;2022-10-01T17:21:25;14.90;99.90
3690;DHT22;1861;50.240;8.596;2022-10-01T17:23:55;15.30;99.90
3690;DHT22;1861;50.240;8.596;2022-10-01T17:26:27;15.00;99.90
3690;DHT22;1861;50.240;8.596;2022-10-01T17:29:02;14.80;99.90